sensor_id;sensor_type;location;lat;lon;timestamp;temperature;humidity
25918;DHT22;13899;51.174;4.456;2022-09-13T00:00:42;21.60;99.90
25918;DHT22;13899;51.174;4.456;2022-09-13T00:03:09;21.60;99.90
25918;DHT22;13899;51.174;4.456;2022-09-13T00:05:35;21.40;99.90
25918;DHT22;13899;51.174;4.456;2022-09-13T00:08:01;21.40;99.90
25918;DHT22;13899;51.174;4.456;2022-09-13T00:10:27;21.20;99.90
25918;DHT22;13899;51.174;4.456;2022-09-13T00:12:53;21.20;99.90
25918;DHT22;13899;51.174;4.456;2022-09-13T00:15:19;20.90;99.90
25918;DHT22;13899;51.174;4.456;2022-09-13T00:17:45;20.50;99.90
25918;DHT22;13899;51.174;4.456;2022-09-13T00:20:12;20.50;99.90
25918;DHT22;13899;51.174;4.456;2022-09-13T00:22:37;20.40;99.90
25918;DHT22;13899;51.174;4.456;2022-09-13T00:25:04;20.40;99.90
25918;DHT22;13899;51.174;4.456;2022-09-13T00:27:34;20.20;99.90
25918;DHT22;13899;51.174;4.456;2022-09-13T00:30:01;20.20;99.90
25918;DHT22;13899;51.174;4.456;2022-09-13T00:32:27;20.60;99.90
25918;DHT22;13899;51.174;4.456;2022-09-13T00:34:52;20.80;99.90
25918;DHT22;13899;51.174;4.456;2022-09-13T00:37:18;20.90;99.90
25918;DHT22;13899;51.174;4.456;2022-09-13T00:39:44;21.20;99.90
25918;DHT22;13899;51.174;4.456;2022-09-13T00:42:11;21.50;99.90
25918;DHT22;13899;51.174;4.456;2022-09-13T00:47:39;21.70;99.90
25918;DHT22;13899;51.174;4.456;2022-09-13T00:50:09;21.50;99.90
25918;DHT22;13899;51.174;4.456;2022-09-13T00:52:37;21.50;99.90
25918;DHT22;13899;51.174;4.456;2022-09-13T00:55:15;21.60;99.90
25918;DHT22;13899;51.174;4.456;2022-09-13T00:57:43;21.80;99.90
25918;DHT22;13899;51.174;4.456;2022-09-13T01:00:13;21.90;99.90
25918;DHT22;13899;51.174;4.456;2022-09-13T01:02:46;21.90;99.90
25918;DHT22;13899;51.174;4.456;2022-09-13T01:05:14;21.90;99.90
25918;DHT22;13899;51.174;4.456;2022-09-13T01:07:41;22.00;99.90
25918;DHT22;13899;51.174;4.456;2022-09-13T01:10:08;22.00;99.90
25918;DHT22;13899;51.174;4.456;2022-09-13T01:12:41;22.00;99.90
25918;DHT22;13899;51.174;4.456;2022-09-13T01:15:09;21.90;99.90
25918;DHT22;13899;51.174;4.456;2022-09-13T01:17:35;21.90;99.90
25918;DHT22;13899;51.174;4.456;2022-09-13T01:20:05;21.80;99.90
25918;DHT22;13899;51.174;4.456;2022-09-13T01:27:56;21.80;99.90
25918;DHT22;13899;51.174;4.456;2022-09-13T01:30:41;21.80;99.90
25918;DHT22;13899;51.174;4.456;2022-09-13T01:33:25;21.80;99.90
25918;DHT22;13899;51.174;4.456;2022-09-13T01:43:48;21.70;99.90
25918;DHT22;13899;51.174;4.456;2022-09-13T01:54:53;21.70;99.90
25918;DHT22;13899;51.174;4.456;2022-09-13T01:57:22;21.70;99.90
25918;DHT22;13899;51.174;4.456;2022-09-13T01:59:55;21.70;99.90
25918;DHT22;13899;51.174;4.456;2022-09-13T02:02:30;21.60;99.90
25918;DHT22;13899;51.174;4.456;2022-09-13T02:05:04;21.60;99.90
25918;DHT22;13899;51.174;4.456;2022-09-13T02:07:35;21.60;99.90
25918;DHT22;13899;51.174;4.456;2022-09-13T02:10:11;21.60;99.90
25918;DHT22;13899;51.174;4.456;2022-09-13T02:12:40;21.60;99.90
25918;DHT22;13899;51.174;4.456;2022-09-13T02:15:16;21.70;99.90
25918;DHT22;13899;51.174;4.456;2022-09-13T02:17:49;21.60;99.90
25918;DHT22;13899;51.174;4.456;2022-09-13T02:20:22;21.50;99.90
25918;DHT22;13899;51.174;4.456;2022-09-13T02:22:54;21.50;99.90
25918;DHT22;13899;51.174;4.456;2022-09-13T02:25:22;21.50;99.90
25918;DHT22;13899;51.174;4.456;2022-09-13T02:27:51;21.50;99.90
25918;DHT22;13899;51.174;4.456;2022-09-13T02:30:19;21.50;99.90
25918;DHT22;13899;51.174;4.456;2022-09-13T02:38:16;21.50;99.90
25918;DHT22;13899;51.174;4.456;2022-09-13T02:40:48;21.30;99.90
25918;DHT22;13899;51.174;4.456;2022-09-13T02:43:20;20.90;99.90
25918;DHT22;13899;51.174;4.456;2022-09-13T02:45:56;20.70;99.90
25918;DHT22;13899;51.174;4.456;2022-09-13T02:48:35;20.80;99.90
25918;DHT22;13899;51.174;4.456;2022-09-13T02:54:08;21.20;99.90
25918;DHT22;13899;51.174;4.456;2022-09-13T02:59:16;21.30;99.90
25918;DHT22;13899;51.174;4.456;2022-09-13T03:01:45;21.30;99.90
25918;DHT22;13899;51.174;4.456;2022-09-13T03:04:12;21.30;99.90
25918;DHT22;13899;51.174;4.456;2022-09-13T03:06:39;21.30;99.90
25918;DHT22;13899;51.174;4.456;2022-09-13T03:09:06;21.30;99.90
25918;DHT22;13899;51.174;4.456;2022-09-13T03:12:13;21.10;99.90
25918;DHT22;13899;51.174;4.456;2022-09-13T03:14:54;20.90;99.90
25918;DHT22;13899;51.174;4.456;2022-09-13T03:23:41;20.00;99.90
25918;DHT22;13899;51.174;4.456;2022-09-13T03:26:21;20.00;99.90
25918;DHT22;13899;51.174;4.456;2022-09-13T03:40:15;20.60;99.90
25918;DHT22;13899;51.174;4.456;2022-09-13T03:42:54;20.80;99.90
25918;DHT22;13899;51.174;4.456;2022-09-13T03:45:26;20.90;99.90
25918;DHT22;13899;51.174;4.456;2022-09-13T03:47:54;21.00;99.90
25918;DHT22;13899;51.174;4.456;2022-09-13T03:50:22;21.10;99.90
25918;DHT22;13899;51.174;4.456;2022-09-13T03:52:51;21.20;99.90
25918;DHT22;13899;51.174;4.456;2022-09-13T03:55:22;21.10;99.90
25918;DHT22;13899;51.174;4.456;2022-09-13T03:57:48;21.20;99.90
25918;DHT22;13899;51.174;4.456;2022-09-13T04:00:14;21.20;99.90
25918;DHT22;13899;51.174;4.456;2022-09-13T04:02:40;21.00;99.90
25918;DHT22;13899;51.174;4.456;2022-09-13T04:05:06;20.90;99.90
25918;DHT22;13899;51.174;4.456;2022-09-13T04:07:32;20.80;99.90
25918;DHT22;13899;51.174;4.456;2022-09-13T04:09:58;20.90;99.90
25918;DHT22;13899;51.174;4.456;2022-09-13T04:12:24;20.70;99.90
25918;DHT22;13899;51.174;4.456;2022-09-13T04:14:49;20.70;99.90
25918;DHT22;13899;51.174;4.456;2022-09-13T04:17:17;20.50;99.90
25918;DHT22;13899;51.174;4.456;2022-09-13T04:19:42;20.50;99.90
25918;DHT22;13899;51.174;4.456;2022-09-13T04:22:09;20.80;99.90
25918;DHT22;13899;51.174;4.456;2022-09-13T04:24:35;20.90;99.90
25918;DHT22;13899;51.174;4.456;2022-09-13T04:27:01;21.10;99.90
25918;DHT22;13899;51.174;4.456;2022-09-13T04:29:27;21.20;99.90
25918;DHT22;13899;51.174;4.456;2022-09-13T04:31:54;21.20;99.90
25918;DHT22;13899;51.174;4.456;2022-09-13T04:34:20;21.10;99.90
25918;DHT22;13899;51.174;4.456;2022-09-13T04:36:50;21.00;99.90
25918;DHT22;13899;51.174;4.456;2022-09-13T04:39:16;21.10;99.90
25918;DHT22;13899;51.174;4.456;2022-09-13T04:41:44;21.20;99.90
25918;DHT22;13899;51.174;4.456;2022-09-13T04:44:11;21.20;99.90
25918;DHT22;13899;51.174;4.456;2022-09-13T04:46:37;21.30;99.90
25918;DHT22;13899;51.174;4.456;2022-09-13T04:49:03;21.20;99.90
25918;DHT22;13899;51.174;4.456;2022-09-13T04:51:29;21.20;99.90
25918;DHT22;13899;51.174;4.456;2022-09-13T04:53:55;21.20;99.90
25918;DHT22;13899;51.174;4.456;2022-09-13T04:56:22;21.30;99.90
25918;DHT22;13899;51.174;4.456;2022-09-13T04:58:53;21.20;99.90
25918;DHT22;13899;51.174;4.456;2022-09-13T05:01:19;21.00;99.90
25918;DHT22;13899;51.174;4.456;2022-09-13T05:03:45;21.00;99.90
25918;DHT22;13899;51.174;4.456;2022-09-13T05:06:12;20.90;99.90
25918;DHT22;13899;51.174;4.456;2022-09-13T05:08:38;21.10;99.90
25918;DHT22;13899;51.174;4.456;2022-09-13T05:11:05;21.00;99.90
25918;DHT22;13899;51.174;4.456;2022-09-13T05:13:32;21.00;99.90
25918;DHT22;13899;51.174;4.456;2022-09-13T05:16:03;20.90;99.90
25918;DHT22;13899;51.174;4.456;2022-09-13T05:18:31;20.60;99.90
25918;DHT22;13899;51.174;4.456;2022-09-13T05:20:58;20.10;99.90
25918;DHT22;13899;51.174;4.456;2022-09-13T05:23:25;20.20;99.90
25918;DHT22;13899;51.174;4.456;2022-09-13T05:25:52;20.30;99.90
25918;DHT22;13899;51.174;4.456;2022-09-13T05:28:18;20.50;99.90
25918;DHT22;13899;51.174;4.456;2022-09-13T05:30:43;20.10;99.90
25918;DHT22;13899;51.174;4.456;2022-09-13T05:33:09;19.80;99.90
25918;DHT22;13899;51.174;4.456;2022-09-13T05:35:38;20.00;99.90
25918;DHT22;13899;51.174;4.456;2022-09-13T05:38:04;20.10;99.90
25918;DHT22;13899;51.174;4.456;2022-09-13T05:40:30;20.40;99.90
25918;DHT22;13899;51.174;4.456;2022-09-13T05:42:56;20.40;99.90
25918;DHT22;13899;51.174;4.456;2022-09-13T05:45:22;20.30;99.90
25918;DHT22;13899;51.174;4.456;2022-09-13T05:47:50;20.50;99.90
25918;DHT22;13899;51.174;4.456;2022-09-13T05:50:15;20.70;99.90
25918;DHT22;13899;51.174;4.456;2022-09-13T05:52:41;20.60;99.90
25918;DHT22;13899;51.174;4.456;2022-09-13T05:55:07;20.60;99.90
25918;DHT22;13899;51.174;4.456;2022-09-13T05:57:35;20.80;99.90
25918;DHT22;13899;51.174;4.456;2022-09-13T06:00:02;20.60;99.90
25918;DHT22;13899;51.174;4.456;2022-09-13T06:02:29;20.70;99.90
25918;DHT22;13899;51.174;4.456;2022-09-13T06:04:55;20.60;99.90
25918;DHT22;13899;51.174;4.456;2022-09-13T06:07:20;20.70;99.90
25918;DHT22;13899;51.174;4.456;2022-09-13T06:09:46;20.60;99.90
25918;DHT22;13899;51.174;4.456;2022-09-13T06:12:11;20.50;99.90
25918;DHT22;13899;51.174;4.456;2022-09-13T06:14:37;20.50;99.90
25918;DHT22;13899;51.174;4.456;2022-09-13T06:17:02;20.50;99.90
25918;DHT22;13899;51.174;4.456;2022-09-13T06:19:28;20.70;99.90
25918;DHT22;13899;51.174;4.456;2022-09-13T06:21:53;20.90;99.90
25918;DHT22;13899;51.174;4.456;2022-09-13T06:24:19;20.60;99.90
25918;DHT22;13899;51.174;4.456;2022-09-13T06:26:45;20.70;99.90
25918;DHT22;13899;51.174;4.456;2022-09-13T06:29:10;20.80;99.90
25918;DHT22;13899;51.174;4.456;2022-09-13T06:31:37;21.00;99.90
25918;DHT22;13899;51.174;4.456;2022-09-13T06:34:10;20.80;99.90
25918;DHT22;13899;51.174;4.456;2022-09-13T06:36:37;21.00;99.90
25918;DHT22;13899;51.174;4.456;2022-09-13T06:39:03;21.30;99.90
25918;DHT22;13899;51.174;4.456;2022-09-13T06:41:30;21.10;99.90
25918;DHT22;13899;51.174;4.456;2022-09-13T06:43:58;21.30;99.90
25918;DHT22;13899;51.174;4.456;2022-09-13T06:46:26;21.10;99.90
25918;DHT22;13899;51.174;4.456;2022-09-13T06:48:52;21.00;99.90
25918;DHT22;13899;51.174;4.456;2022-09-13T06:51:20;21.20;99.90
25918;DHT22;13899;51.174;4.456;2022-09-13T06:53:47;21.20;99.90
25918;DHT22;13899;51.174;4.456;2022-09-13T06:56:27;20.80;99.90
25918;DHT22;13899;51.174;4.456;2022-09-13T06:58:58;20.90;99.90
25918;DHT22;13899;51.174;4.456;2022-09-13T07:01:30;20.90;99.90
25918;DHT22;13899;51.174;4.456;2022-09-13T07:04:01;21.00;99.90
25918;DHT22;13899;51.174;4.456;2022-09-13T07:06:30;20.90;99.90
25918;DHT22;13899;51.174;4.456;2022-09-13T07:08:57;21.00;99.90
25918;DHT22;13899;51.174;4.456;2022-09-13T07:11:24;21.20;99.90
25918;DHT22;13899;51.174;4.456;2022-09-13T07:13:55;21.30;99.90
25918;DHT22;13899;51.174;4.456;2022-09-13T07:16:24;21.60;99.90
25918;DHT22;13899;51.174;4.456;2022-09-13T07:18:52;21.60;99.90
25918;DHT22;13899;51.174;4.456;2022-09-13T07:21:18;21.70;99.90
25918;DHT22;13899;51.174;4.456;2022-09-13T07:23:44;21.60;99.90
25918;DHT22;13899;51.174;4.456;2022-09-13T07:26:10;21.50;99.90
25918;DHT22;13899;51.174;4.456;2022-09-13T07:28:41;21.60;99.90
25918;DHT22;13899;51.174;4.456;2022-09-13T07:33:34;22.00;99.90
25918;DHT22;13899;51.174;4.456;2022-09-13T07:36:00;22.20;99.90
25918;DHT22;13899;51.174;4.456;2022-09-13T07:38:37;21.80;99.90
25918;DHT22;13899;51.174;4.456;2022-09-13T07:41:04;21.80;99.90
25918;DHT22;13899;51.174;4.456;2022-09-13T07:43:32;21.80;99.90
25918;DHT22;13899;51.174;4.456;2022-09-13T07:46:04;22.00;99.90
25918;DHT22;13899;51.174;4.456;2022-09-13T07:48:31;22.30;99.90
25918;DHT22;13899;51.174;4.456;2022-09-13T07:53:37;22.80;99.90
25918;DHT22;13899;51.174;4.456;2022-09-13T07:56:08;22.70;99.90
25918;DHT22;13899;51.174;4.456;2022-09-13T07:58:39;22.90;99.90
25918;DHT22;13899;51.174;4.456;2022-09-13T08:01:11;23.10;99.90
25918;DHT22;13899;51.174;4.456;2022-09-13T08:03:38;23.10;99.90
25918;DHT22;13899;51.174;4.456;2022-09-13T08:06:04;22.70;99.90
25918;DHT22;13899;51.174;4.456;2022-09-13T08:08:31;22.80;99.90
25918;DHT22;13899;51.174;4.456;2022-09-13T08:10:57;23.20;99.90
25918;DHT22;13899;51.174;4.456;2022-09-13T08:13:23;23.50;99.90
25918;DHT22;13899;51.174;4.456;2022-09-13T08:15:48;23.90;99.90
25918;DHT22;13899;51.174;4.456;2022-09-13T08:18:15;23.80;99.90
25918;DHT22;13899;51.174;4.456;2022-09-13T08:20:40;24.10;99.90
25918;DHT22;13899;51.174;4.456;2022-09-13T08:23:08;24.60;99.90
25918;DHT22;13899;51.174;4.456;2022-09-13T08:25:35;24.50;99.90
25918;DHT22;13899;51.174;4.456;2022-09-13T08:28:08;24.70;99.90
25918;DHT22;13899;51.174;4.456;2022-09-13T08:30:35;24.50;99.90
25918;DHT22;13899;51.174;4.456;2022-09-13T08:33:02;24.80;99.90
25918;DHT22;13899;51.174;4.456;2022-09-13T08:35:29;24.70;99.90
25918;DHT22;13899;51.174;4.456;2022-09-13T08:37:55;24.30;99.90
25918;DHT22;13899;51.174;4.456;2022-09-13T08:40:21;24.30;99.90
25918;DHT22;13899;51.174;4.456;2022-09-13T08:45:17;24.60;99.90
25918;DHT22;13899;51.174;4.456;2022-09-13T08:47:46;24.50;99.90
25918;DHT22;13899;51.174;4.456;2022-09-13T08:50:26;24.70;99.90
25918;DHT22;13899;51.174;4.456;2022-09-13T08:53:16;24.50;99.90
25918;DHT22;13899;51.174;4.456;2022-09-13T08:58:39;24.60;99.90
25918;DHT22;13899;51.174;4.456;2022-09-13T09:01:30;25.20;99.90
25918;DHT22;13899;51.174;4.456;2022-09-13T09:07:18;25.90;99.90
25918;DHT22;13899;51.174;4.456;2022-09-13T09:10:22;26.30;99.90
25918;DHT22;13899;51.174;4.456;2022-09-13T09:12:52;26.80;99.90
25918;DHT22;13899;51.174;4.456;2022-09-13T09:15:54;26.70;99.90
25918;DHT22;13899;51.174;4.456;2022-09-13T09:20:43;26.50;99.90
25918;DHT22;13899;51.174;4.456;2022-09-13T09:23:30;26.90;99.90
25918;DHT22;13899;51.174;4.456;2022-09-13T09:26:17;27.30;99.90
25918;DHT22;13899;51.174;4.456;2022-09-13T09:28:50;27.20;99.90
25918;DHT22;13899;51.174;4.456;2022-09-13T09:31:25;26.60;99.90
25918;DHT22;13899;51.174;4.456;2022-09-13T09:36:44;27.70;99.90
25918;DHT22;13899;51.174;4.456;2022-09-13T09:39:14;28.20;99.90
25918;DHT22;13899;51.174;4.456;2022-09-13T09:41:42;28.20;99.90
25918;DHT22;13899;51.174;4.456;2022-09-13T09:44:19;28.30;99.90
25918;DHT22;13899;51.174;4.456;2022-09-13T09:46:51;27.80;99.90
25918;DHT22;13899;51.174;4.456;2022-09-13T09:52:25;28.40;99.90
25918;DHT22;13899;51.174;4.456;2022-09-13T09:54:58;28.20;99.90
25918;DHT22;13899;51.174;4.456;2022-09-13T09:57:51;29.00;99.90
25918;DHT22;13899;51.174;4.456;2022-09-13T10:00:18;29.60;99.90
25918;DHT22;13899;51.174;4.456;2022-09-13T10:02:44;29.40;99.90
25918;DHT22;13899;51.174;4.456;2022-09-13T10:05:12;28.70;99.90
25918;DHT22;13899;51.174;4.456;2022-09-13T10:07:42;29.30;99.90
25918;DHT22;13899;51.174;4.456;2022-09-13T10:10:22;29.10;99.90
25918;DHT22;13899;51.174;4.456;2022-09-13T10:12:52;29.70;99.90
25918;DHT22;13899;51.174;4.456;2022-09-13T10:15:22;30.60;99.90
25918;DHT22;13899;51.174;4.456;2022-09-13T10:18:14;30.80;99.90
25918;DHT22;13899;51.174;4.456;2022-09-13T10:20:41;31.20;99.90
25918;DHT22;13899;51.174;4.456;2022-09-13T10:23:17;31.70;99.90
25918;DHT22;13899;51.174;4.456;2022-09-13T10:26:05;32.90;99.90
25918;DHT22;13899;51.174;4.456;2022-09-13T10:28:46;33.10;99.90
25918;DHT22;13899;51.174;4.456;2022-09-13T10:31:17;33.40;99.90
25918;DHT22;13899;51.174;4.456;2022-09-13T10:39:01;35.40;96.00
25918;DHT22;13899;51.174;4.456;2022-09-13T10:41:37;34.80;93.80
25918;DHT22;13899;51.174;4.456;2022-09-13T10:44:05;32.90;98.10
25918;DHT22;13899;51.174;4.456;2022-09-13T10:46:47;32.70;99.90
25918;DHT22;13899;51.174;4.456;2022-09-13T10:54:49;32.50;99.90
25918;DHT22;13899;51.174;4.456;2022-09-13T10:57:41;31.70;99.90
25918;DHT22;13899;51.174;4.456;2022-09-13T11:00:13;31.10;99.90
25918;DHT22;13899;51.174;4.456;2022-09-13T11:03:20;31.10;99.90
25918;DHT22;13899;51.174;4.456;2022-09-13T11:14:15;31.10;99.90
25918;DHT22;13899;51.174;4.456;2022-09-13T11:17:18;30.60;99.90
25918;DHT22;13899;51.174;4.456;2022-09-13T11:22:56;29.40;99.90
25918;DHT22;13899;51.174;4.456;2022-09-13T11:36:20;32.10;99.90
25918;DHT22;13899;51.174;4.456;2022-09-13T11:39:08;33.80;99.90
25918;DHT22;13899;51.174;4.456;2022-09-13T11:47:57;37.10;88.20
25918;DHT22;13899;51.174;4.456;2022-09-13T11:56:02;36.30;78.40
25918;DHT22;13899;51.174;4.456;2022-09-13T11:58:44;35.00;89.30
25918;DHT22;13899;51.174;4.456;2022-09-13T12:01:12;34.40;92.40
25918;DHT22;13899;51.174;4.456;2022-09-13T12:04:03;34.10;92.70
25918;DHT22;13899;51.174;4.456;2022-09-13T12:06:37;33.60;93.80
25918;DHT22;13899;51.174;4.456;2022-09-13T12:09:16;34.90;92.00
25918;DHT22;13899;51.174;4.456;2022-09-13T12:12:09;35.50;89.70
25918;DHT22;13899;51.174;4.456;2022-09-13T12:14:59;35.60;85.80
25918;DHT22;13899;51.174;4.456;2022-09-13T12:17:36;35.30;86.40
25918;DHT22;13899;51.174;4.456;2022-09-13T12:20:10;35.70;82.90
25918;DHT22;13899;51.174;4.456;2022-09-13T12:22:38;36.60;83.40
25918;DHT22;13899;51.174;4.456;2022-09-13T12:25:18;36.70;79.90
25918;DHT22;13899;51.174;4.456;2022-09-13T12:30:51;37.60;76.10
25918;DHT22;13899;51.174;4.456;2022-09-13T12:33:24;38.00;76.00
25918;DHT22;13899;51.174;4.456;2022-09-13T12:36:32;37.40;74.70
25918;DHT22;13899;51.174;4.456;2022-09-13T12:45:25;35.50;80.20
25918;DHT22;13899;51.174;4.456;2022-09-13T12:59:43;32.10;93.30
25918;DHT22;13899;51.174;4.456;2022-09-13T13:04:53;31.20;98.70
25918;DHT22;13899;51.174;4.456;2022-09-13T13:07:21;31.00;97.50
25918;DHT22;13899;51.174;4.456;2022-09-13T13:09:50;30.80;99.60
25918;DHT22;13899;51.174;4.456;2022-09-13T13:14:56;30.60;99.80
25918;DHT22;13899;51.174;4.456;2022-09-13T13:22:47;29.60;99.90
25918;DHT22;13899;51.174;4.456;2022-09-13T13:25:35;29.30;99.90
25918;DHT22;13899;51.174;4.456;2022-09-13T13:33:54;28.30;99.90
25918;DHT22;13899;51.174;4.456;2022-09-13T13:36:43;28.00;99.90
25918;DHT22;13899;51.174;4.456;2022-09-13T13:41:57;28.20;99.90
25918;DHT22;13899;51.174;4.456;2022-09-13T13:46:54;28.40;99.90
25918;DHT22;13899;51.174;4.456;2022-09-13T13:57:22;28.20;99.90
25918;DHT22;13899;51.174;4.456;2022-09-13T14:00:11;27.90;99.90
25918;DHT22;13899;51.174;4.456;2022-09-13T14:03:13;27.80;99.90
25918;DHT22;13899;51.174;4.456;2022-09-13T14:06:05;27.60;99.90
25918;DHT22;13899;51.174;4.456;2022-09-13T14:14:26;27.40;99.90
25918;DHT22;13899;51.174;4.456;2022-09-13T14:19:46;27.20;99.90
25918;DHT22;13899;51.174;4.456;2022-09-13T14:22:24;27.30;99.90
25918;DHT22;13899;51.174;4.456;2022-09-13T14:24:53;27.30;99.90
25918;DHT22;13899;51.174;4.456;2022-09-13T14:29:53;27.20;99.90
25918;DHT22;13899;51.174;4.456;2022-09-13T14:32:22;27.30;99.90
25918;DHT22;13899;51.174;4.456;2022-09-13T14:35:00;27.20;99.90
25918;DHT22;13899;51.174;4.456;2022-09-13T14:37:35;27.10;99.90
25918;DHT22;13899;51.174;4.456;2022-09-13T14:42:44;26.30;99.90
25918;DHT22;13899;51.174;4.456;2022-09-13T14:45:15;26.30;99.90
25918;DHT22;13899;51.174;4.456;2022-09-13T14:50:22;25.40;99.90
25918;DHT22;13899;51.174;4.456;2022-09-13T14:52:58;25.50;99.90
25918;DHT22;13899;51.174;4.456;2022-09-13T14:55:29;25.30;99.90
25918;DHT22;13899;51.174;4.456;2022-09-13T14:57:59;25.50;99.90
25918;DHT22;13899;51.174;4.456;2022-09-13T15:00:30;25.50;99.90
25918;DHT22;13899;51.174;4.456;2022-09-13T15:03:12;25.10;99.90
25918;DHT22;13899;51.174;4.456;2022-09-13T15:05:39;25.20;99.90
25918;DHT22;13899;51.174;4.456;2022-09-13T15:11:06;25.10;99.90
25918;DHT22;13899;51.174;4.456;2022-09-13T15:13:32;25.30;99.90
25918;DHT22;13899;51.174;4.456;2022-09-13T15:15:58;25.70;99.90
25918;DHT22;13899;51.174;4.456;2022-09-13T15:18:31;25.90;99.90
25918;DHT22;13899;51.174;4.456;2022-09-13T15:21:04;25.70;99.90
25918;DHT22;13899;51.174;4.456;2022-09-13T15:23:36;25.80;99.90
25918;DHT22;13899;51.174;4.456;2022-09-13T15:26:18;26.00;99.90
25918;DHT22;13899;51.174;4.456;2022-09-13T15:28:57;26.20;99.90
25918;DHT22;13899;51.174;4.456;2022-09-13T15:31:27;26.30;99.90
25918;DHT22;13899;51.174;4.456;2022-09-13T15:37:11;26.20;99.90
25918;DHT22;13899;51.174;4.456;2022-09-13T15:39:48;26.10;99.90
25918;DHT22;13899;51.174;4.456;2022-09-13T15:42:15;26.10;99.90
25918;DHT22;13899;51.174;4.456;2022-09-13T15:44:41;25.70;99.90
25918;DHT22;13899;51.174;4.456;2022-09-13T15:47:17;25.70;99.90
25918;DHT22;13899;51.174;4.456;2022-09-13T15:49:47;25.70;99.90
25918;DHT22;13899;51.174;4.456;2022-09-13T15:52:15;25.70;99.90
25918;DHT22;13899;51.174;4.456;2022-09-13T15:54:42;25.90;99.90
25918;DHT22;13899;51.174;4.456;2022-09-13T15:57:26;25.90;99.90
25918;DHT22;13899;51.174;4.456;2022-09-13T15:59:53;26.00;99.90
25918;DHT22;13899;51.174;4.456;2022-09-13T16:02:26;25.90;99.90
25918;DHT22;13899;51.174;4.456;2022-09-13T16:04:53;26.00;99.90
25918;DHT22;13899;51.174;4.456;2022-09-13T16:07:20;26.00;99.90
25918;DHT22;13899;51.174;4.456;2022-09-13T16:09:46;26.00;99.90
25918;DHT22;13899;51.174;4.456;2022-09-13T16:12:13;26.20;99.90
25918;DHT22;13899;51.174;4.456;2022-09-13T16:14:38;26.10;99.90
25918;DHT22;13899;51.174;4.456;2022-09-13T16:17:09;26.00;99.90
25918;DHT22;13899;51.174;4.456;2022-09-13T16:19:34;26.00;99.90
25918;DHT22;13899;51.174;4.456;2022-09-13T16:22:00;25.80;99.90
25918;DHT22;13899;51.174;4.456;2022-09-13T16:24:26;25.80;99.90
25918;DHT22;13899;51.174;4.456;2022-09-13T16:26:52;25.70;99.90
25918;DHT22;13899;51.174;4.456;2022-09-13T16:29:17;25.60;99.90
25918;DHT22;13899;51.174;4.456;2022-09-13T16:31:43;25.70;99.90
25918;DHT22;13899;51.174;4.456;2022-09-13T16:34:08;25.60;99.90
25918;DHT22;13899;51.174;4.456;2022-09-13T16:36:34;25.60;99.90
25918;DHT22;13899;51.174;4.456;2022-09-13T16:39:00;25.60;99.90
25918;DHT22;13899;51.174;4.456;2022-09-13T16:41:26;25.70;99.90
25918;DHT22;13899;51.174;4.456;2022-09-13T16:43:53;25.50;99.90
25918;DHT22;13899;51.174;4.456;2022-09-13T16:46:19;25.50;99.90
25918;DHT22;13899;51.174;4.456;2022-09-13T16:48:44;25.50;99.90
25918;DHT22;13899;51.174;4.456;2022-09-13T16:51:11;25.40;99.90
25918;DHT22;13899;51.174;4.456;2022-09-13T16:53:39;25.50;99.90
25918;DHT22;13899;51.174;4.456;2022-09-13T16:56:10;25.40;99.90
25918;DHT22;13899;51.174;4.456;2022-09-13T16:58:38;25.40;99.90
25918;DHT22;13899;51.174;4.456;2022-09-13T17:01:09;25.30;99.90
25918;DHT22;13899;51.174;4.456;2022-09-13T17:03:35;25.10;99.90
25918;DHT22;13899;51.174;4.456;2022-09-13T17:06:04;24.60;99.90
25918;DHT22;13899;51.174;4.456;2022-09-13T17:08:30;24.50;99.90
25918;DHT22;13899;51.174;4.456;2022-09-13T17:10:56;24.40;99.90
25918;DHT22;13899;51.174;4.456;2022-09-13T17:13:22;24.30;99.90
25918;DHT22;13899;51.174;4.456;2022-09-13T17:15:49;24.20;99.90
25918;DHT22;13899;51.174;4.456;2022-09-13T17:18:14;24.20;99.90
25918;DHT22;13899;51.174;4.456;2022-09-13T17:20:45;24.20;99.90
25918;DHT22;13899;51.174;4.456;2022-09-13T17:23:11;24.10;99.90
25918;DHT22;13899;51.174;4.456;2022-09-13T17:25:40;24.00;99.90
25918;DHT22;13899;51.174;4.456;2022-09-13T17:28:08;24.20;99.90
25918;DHT22;13899;51.174;4.456;2022-09-13T17:30:33;24.20;99.90
25918;DHT22;13899;51.174;4.456;2022-09-13T17:32:59;24.00;99.90
25918;DHT22;13899;51.174;4.456;2022-09-13T17:35:24;24.00;99.90
25918;DHT22;13899;51.174;4.456;2022-09-13T17:37:50;23.90;99.90
25918;DHT22;13899;51.174;4.456;2022-09-13T17:40:16;23.70;99.90
25918;DHT22;13899;51.174;4.456;2022-09-13T17:42:42;23.70;99.90
25918;DHT22;13899;51.174;4.456;2022-09-13T17:45:08;23.80;99.90
25918;DHT22;13899;51.174;4.456;2022-09-13T17:47:33;23.90;99.90
25918;DHT22;13899;51.174;4.456;2022-09-13T17:49:59;23.80;99.90
25918;DHT22;13899;51.174;4.456;2022-09-13T17:52:26;23.80;99.90
25918;DHT22;13899;51.174;4.456;2022-09-13T17:54:51;23.80;99.90
25918;DHT22;13899;51.174;4.456;2022-09-13T17:57:18;23.70;99.90
25918;DHT22;13899;51.174;4.456;2022-09-13T17:59:43;23.60;99.90
25918;DHT22;13899;51.174;4.456;2022-09-13T18:02:11;23.40;99.90
25918;DHT22;13899;51.174;4.456;2022-09-13T18:04:37;23.20;99.90
25918;DHT22;13899;51.174;4.456;2022-09-13T18:07:02;23.20;99.90
25918;DHT22;13899;51.174;4.456;2022-09-13T18:09:28;23.20;99.90
25918;DHT22;13899;51.174;4.456;2022-09-13T18:11:54;22.90;99.90
25918;DHT22;13899;51.174;4.456;2022-09-13T18:14:19;22.80;99.90
25918;DHT22;13899;51.174;4.456;2022-09-13T18:16:45;22.70;99.90
25918;DHT22;13899;51.174;4.456;2022-09-13T18:19:13;22.60;99.90
25918;DHT22;13899;51.174;4.456;2022-09-13T18:21:39;22.70;99.90
25918;DHT22;13899;51.174;4.456;2022-09-13T18:24:05;22.70;99.90
25918;DHT22;13899;51.174;4.456;2022-09-13T18:26:31;22.60;99.90
25918;DHT22;13899;51.174;4.456;2022-09-13T18:29:00;22.60;99.90
25918;DHT22;13899;51.174;4.456;2022-09-13T18:31:28;22.70;99.90
25918;DHT22;13899;51.174;4.456;2022-09-13T18:34:15;22.50;99.90
25918;DHT22;13899;51.174;4.456;2022-09-13T18:36:40;22.60;99.90
25918;DHT22;13899;51.174;4.456;2022-09-13T18:39:07;22.60;99.90
25918;DHT22;13899;51.174;4.456;2022-09-13T18:41:37;22.40;99.90
25918;DHT22;13899;51.174;4.456;2022-09-13T18:44:05;22.30;99.90
25918;DHT22;13899;51.174;4.456;2022-09-13T18:46:31;22.30;99.90
25918;DHT22;13899;51.174;4.456;2022-09-13T18:48:58;22.30;99.90
25918;DHT22;13899;51.174;4.456;2022-09-13T18:51:28;22.40;99.90
25918;DHT22;13899;51.174;4.456;2022-09-13T18:53:58;22.30;99.90
25918;DHT22;13899;51.174;4.456;2022-09-13T18:56:24;22.20;99.90
25918;DHT22;13899;51.174;4.456;2022-09-13T18:58:51;22.20;99.90
25918;DHT22;13899;51.174;4.456;2022-09-13T19:01:25;22.20;99.90
25918;DHT22;13899;51.174;4.456;2022-09-13T19:03:59;22.20;99.90